Time;durP1;ratioP1;P1;durP2;ratioP2;P2;SDS_P1;SDS_P2;PMS_P1;PMS_P2;Temp;Humidity;BMP_temperature;BMP_pressure;BME280_temperature;BME280_humidity;BME280_pressure;Samples;Min_cycle;Max_cycle;Signal;HPM_P1;HPM_P2
2021/07/24 00:00:10;;;;;;;19.85;13.88;;;;;;;20.08;60.26;100173.31;4930553;28;98343;-86
2021/07/24 00:02:35;;;;;;;22.17;13.50;;;;;;;20.07;60.14;100168.06;4931288;28;96845;-86
2021/07/24 00:05:01;;;;;;;21.63;13.38;;;;;;;20.08;60.28;100162.66;4914876;28;97160;-86
2021/07/24 00:07:26;;;;;;;19.02;13.35;;;;;;;19.93;60.70;100171.81;4898423;28;101236;-86
2021/07/24 00:09:52;;;;;;;23.13;13.20;;;;;;;20.15;60.19;100164.84;4914098;28;100242;-87
2021/07/24 00:12:17;;;;;;;20.95;14.10;;;;;;;20.34;59.51;100167.78;4898453;28;97809;-86
2021/07/24 00:14:43;;;;;;;24.83;14.77;;;;;;;20.15;60.02;100164.84;4898858;28;97214;-86
2021/07/24 00:17:08;;;;;;;18.63;13.70;;;;;;;20.08;60.17;100164.47;4914026;28;100864;-86
2021/07/24 00:19:34;;;;;;;17.77;12.77;;;;;;;20.13;60.12;100165.81;4914483;28;101308;-86
2021/07/24 00:21:59;;;;;;;26.27;14.00;;;;;;;20.12;59.99;100161.44;4930549;28;97317;-86
2021/07/24 00:24:25;;;;;;;18.95;14.48;;;;;;;19.91;60.58;100163.06;4930788;28;97091;-86
2021/07/24 00:26:50;;;;;;;23.20;14.02;;;;;;;19.79;60.75;100169.31;4897831;28;101462;-86
2021/07/24 00:29:16;;;;;;;23.98;14.90;;;;;;;19.86;60.54;100166.06;4898974;28;100102;-86
2021/07/24 00:31:41;;;;;;;22.35;14.55;;;;;;;19.97;60.47;100161.75;4930691;28;97006;-86
2021/07/24 00:34:07;;;;;;;19.92;14.27;;;;;;;19.87;60.57;100166.94;4930223;28;97265;-86
2021/07/24 00:36:33;;;;;;;25.30;14.82;;;;;;;19.80;60.67;100158.53;4914275;28;98522;-86
2021/07/24 00:38:59;;;;;;;24.17;14.43;;;;;;;19.77;61.14;100163.25;4913991;28;101540;-85
2021/07/24 00:41:41;;;;;;;18.90;13.13;;;;;;;19.78;61.16;100159.63;4930913;28;97069;-86
2021/07/24 00:44:08;;;;;;;21.13;13.65;;;;;;;19.66;61.44;100153.41;4914146;28;97167;-86
2021/07/24 00:46:36;;;;;;;25.58;14.63;;;;;;;19.72;61.23;100158.25;4914866;28;100149;-86
2021/07/24 00:49:03;;;;;;;24.60;14.32;;;;;;;19.67;61.29;100149.78;4929901;28;101396;-86
2021/07/24 00:51:42;;;;;;;21.70;14.38;;;;;;;19.67;61.32;100149.78;4935219;28;96963;-86
2021/07/24 00:54:08;;;;;;;20.33;13.95;;;;;;;19.54;61.52;100140.97;4934014;28;97226;-86
2021/07/24 00:56:34;;;;;;;22.08;14.35;;;;;;;19.61;61.19;100139.56;4917481;28;99987;-86
2021/07/24 00:59:00;;;;;;;18.42;13.35;;;;;;;19.43;62.10;100147.97;4901053;28;101527;-87
2021/07/24 01:01:25;;;;;;;23.50;13.75;;;;;;;19.27;62.14;100147.38;4933305;28;96839;-86
2021/07/24 01:03:51;;;;;;;22.45;14.77;;;;;;;19.32;62.30;100152.38;4933565;28;96811;-86
2021/07/24 01:06:17;;;;;;;17.83;13.20;;;;;;;19.40;61.96;100152.63;4933809;28;100532;-87
2021/07/24 01:08:43;;;;;;;23.38;14.07;;;;;;;19.40;61.94;100148.19;4917710;28;98458;-86
2021/07/24 01:11:12;;;;;;;22.20;14.25;;;;;;;19.23;62.67;100160.06;4917313;28;96754;-86
2021/07/24 01:13:39;;;;;;;21.75;13.35;;;;;;;19.29;62.57;100152.59;4917696;28;96625;-86
2021/07/24 01:16:07;;;;;;;22.45;13.90;;;;;;;19.25;62.49;100157.25;4917198;28;101436;-86
2021/07/24 01:18:35;;;;;;;18.52;13.27;;;;;;;19.32;62.25;100153.22;4934128;28;101463;-86
2021/07/24 01:21:05;;;;;;;20.77;13.50;;;;;;;19.21;62.68;100158.47;4917435;28;96968;-86
2021/07/24 01:23:36;;;;;;;26.83;14.85;;;;;;;19.26;62.51;100152.78;4918675;28;96653;-86
2021/07/24 01:26:02;;;;;;;20.23;14.43;;;;;;;19.27;62.42;100152.69;4932330;28;98446;-87
2021/07/24 01:28:34;;;;;;;22.17;14.95;;;;;;;19.27;62.43;100147.38;4933887;28;99958;-86
2021/07/24 01:31:03;;;;;;;24.45;14.02;;;;;;;19.12;62.99;100144.00;4932909;28;97220;-87
2021/07/24 01:33:32;;;;;;;20.00;14.40;;;;;;;19.22;62.76;100144.19;4933648;28;97147;-86
2021/07/24 01:35:58;;;;;;;25.65;15.82;;;;;;;19.07;63.40;100154.13;4917242;28;98556;-87
2021/07/24 01:38:24;;;;;;;30.48;15.00;;;;;;;19.07;63.49;100151.47;4917171;28;100435;-86
2021/07/24 01:40:59;;;;;;;27.67;15.77;;;;;;;19.07;63.30;100151.47;4918050;28;96873;-86
2021/07/24 01:43:25;;;;;;;21.60;14.85;;;;;;;19.04;63.22;100151.69;4917357;28;96728;-86
2021/07/24 01:45:50;;;;;;;19.95;14.70;;;;;;;19.04;62.96;100154.34;4933539;28;98609;-86
2021/07/24 01:48:30;;;;;;;20.17;14.40;;;;;;;19.06;63.30;100148.94;4901246;28;102077;-86
2021/07/24 01:53:43;;;;;;;20.10;14.27;;;;;;;18.95;63.67;100139.06;4935736;28;96720;-86
2021/07/24 01:56:10;;;;;;;21.20;13.95;;;;;;;19.05;63.43;100144.56;4931992;28;101803;-86
2021/07/24 01:58:36;;;;;;;24.35;13.60;;;;;;;18.91;63.57;100141.09;4916753;28;101287;-86
2021/07/24 02:01:17;;;;;;;17.73;13.18;;;;;;;18.77;63.85;100138.56;4933409;28;97156;-86
2021/07/24 02:03:52;;;;;;;25.30;15.05;;;;;;;18.70;64.25;100137.25;4916579;28;96881;-86
2021/07/24 02:06:17;;;;;;;19.30;13.45;;;;;;;18.76;63.80;100135.06;4913196;28;98510;-86
2021/07/24 02:08:58;;;;;;;23.27;14.20;;;;;;;18.69;64.11;100139.06;4934680;28;100563;-86
2021/07/24 02:11:24;;;;;;;19.48;13.85;;;;;;;18.65;64.28;100131.44;4917276;28;96594;-86
2021/07/24 02:13:51;;;;;;;18.48;13.30;;;;;;;18.66;64.12;100141.09;4917000;28;96963;-86
2021/07/24 02:16:16;;;;;;;21.02;13.57;;;;;;;18.55;64.57;100139.19;4899726;28;101837;-86
2021/07/24 02:18:43;;;;;;;20.65;12.73;;;;;;;18.63;64.26;100136.84;4932830;28;101153;-86
2021/07/24 02:21:22;;;;;;;19.90;13.68;;;;;;;18.47;64.46;100136.22;4934719;28;96632;-86
2021/07/24 02:23:48;;;;;;;15.80;12.63;;;;;;;18.48;64.38;100135.28;4932975;28;96756;-86
2021/07/24 02:26:13;;;;;;;18.25;13.60;;;;;;;18.50;64.32;100136.88;4900393;28;101091;-86
2021/07/24 02:28:41;;;;;;;15.95;13.05;;;;;;;18.54;63.87;100129.53;4901211;28;101620;-86
2021/07/24 02:31:07;;;;;;;18.05;13.13;;;;;;;18.47;64.19;100133.56;4900290;28;97068;-86
2021/07/24 02:33:33;;;;;;;19.92;12.60;;;;;;;18.54;64.12;100127.72;4917073;28;97122;-86
2021/07/24 02:36:02;;;;;;;20.25;13.18;;;;;;;18.44;64.25;100132.00;4932587;28;100464;-86
2021/07/24 02:38:31;;;;;;;18.90;11.95;;;;;;;18.39;64.49;100122.63;4916526;28;100974;-86
2021/07/24 02:40:57;;;;;;;15.63;12.75;;;;;;;18.45;63.89;100125.69;4931854;28;96632;-87
2021/07/24 02:43:25;;;;;;;21.48;12.20;;;;;;;18.44;64.00;100128.44;4900076;28;96957;-86
2021/07/24 02:45:52;;;;;;;21.60;11.93;;;;;;;18.37;63.95;100124.53;4917083;28;98274;-86
2021/07/24 02:48:17;;;;;;;17.00;12.50;;;;;;;18.32;63.93;100128.38;4901114;28;101171;-86
2021/07/24 02:50:53;;;;;;;20.02;12.88;;;;;;;18.28;64.18;100134.00;4934469;28;96952;-86
2021/07/24 02:53:19;;;;;;;12.75;11.15;;;;;;;18.24;64.34;100127.22;4933481;28;97325;-86
2021/07/24 02:55:44;;;;;;;15.02;11.95;;;;;;;18.33;64.14;100122.09;4902152;28;101505;-86
2021/07/24 02:58:10;;;;;;;20.00;11.50;;;;;;;18.15;64.91;100131.34;4916631;28;97041;-86
2021/07/24 03:00:36;;;;;;;22.30;12.68;;;;;;;18.07;65.01;100125.69;4916378;28;96889;-86
2021/07/24 03:03:03;;;;;;;17.58;12.73;;;;;;;18.06;64.84;100129.28;4932013;28;96715;-87
2021/07/24 03:05:28;;;;;;;17.65;12.20;;;;;;;18.05;64.75;100128.44;4899755;28;101898;-86
2021/07/24 03:07:54;;;;;;;21.48;13.35;;;;;;;18.10;65.04;100130.81;4932140;28;100168;-86
2021/07/24 03:10:19;;;;;;;19.15;13.35;;;;;;;17.87;65.42;100135.00;4915600;28;96612;-86
2021/07/24 03:12:45;;;;;;;15.85;12.40;;;;;;;17.80;65.80;100129.28;4932106;28;96694;-86
2021/07/24 03:15:10;;;;;;;20.67;12.55;;;;;;;17.91;65.29;100127.69;4930970;28;100421;-86
2021/07/24 03:17:36;;;;;;;17.33;12.52;;;;;;;17.87;65.59;100127.88;4915683;28;100136;-86
2021/07/24 03:20:04;;;;;;;20.67;12.82;;;;;;;17.91;65.67;100127.69;4931678;28;97121;-86
2021/07/24 03:22:30;;;;;;;19.95;12.57;;;;;;;17.90;65.57;100126.84;4916816;28;96580;-86
2021/07/24 03:24:56;;;;;;;17.45;11.82;;;;;;;17.95;65.36;100132.69;4931732;28;101957;-86
2021/07/24 03:27:22;;;;;;;16.15;12.10;;;;;;;17.89;65.93;100141.06;4899133;28;101210;-86
2021/07/24 03:29:47;;;;;;;20.88;12.95;;;;;;;17.98;65.43;100140.44;4915686;28;96535;-86
2021/07/24 03:32:13;;;;;;;23.02;12.23;;;;;;;18.01;65.48;100128.78;4931883;28;96540;-86
2021/07/24 03:34:38;;;;;;;18.05;12.48;;;;;;;18.04;65.58;100139.19;4915554;28;98768;-86
2021/07/24 03:37:04;;;;;;;18.23;12.70;;;;;;;18.07;65.37;100137.16;4931211;28;101126;-86
2021/07/24 03:39:29;;;;;;;20.15;12.52;;;;;;;18.21;64.90;100128.25;4932047;28;97123;-86
2021/07/24 03:41:55;;;;;;;15.88;11.77;;;;;;;18.23;64.83;100134.28;4899352;28;97110;-86
2021/07/24 03:44:20;;;;;;;16.05;11.98;;;;;;;18.23;64.60;100136.09;4915087;28;100529;-86
2021/07/24 03:46:46;;;;;;;20.65;12.40;;;;;;;18.26;64.58;100136.75;4916172;28;98476;-85
2021/07/24 03:49:11;;;;;;;17.85;12.02;;;;;;;18.26;65.06;100136.75;4915156;28;96909;-86
2021/07/24 03:51:38;;;;;;;22.50;13.07;;;;;;;18.33;64.68;100142.50;4915531;28;96992;-86
2021/07/24 03:54:03;;;;;;;19.27;12.30;;;;;;;18.34;64.59;100133.56;4914557;28;101455;-85
2021/07/24 03:56:29;;;;;;;18.58;12.05;;;;;;;18.46;64.43;100140.69;4931161;28;102385;-86
2021/07/24 03:58:54;;;;;;;17.63;12.73;;;;;;;18.64;63.86;100135.88;4911348;28;96878;-86
2021/07/24 04:01:22;;;;;;;18.15;11.40;;;;;;;18.55;64.33;100141.84;4914452;28;97065;-86
2021/07/24 04:03:48;;;;;;;18.25;12.10;;;;;;;18.55;64.16;100145.34;4915379;28;101889;-86
2021/07/24 04:06:20;;;;;;;18.73;13.20;;;;;;;18.78;63.44;100140.25;4914740;28;101200;-86
2021/07/24 04:08:46;;;;;;;17.58;12.38;;;;;;;18.69;63.75;100146.19;4931726;28;96830;-85
2021/07/24 04:11:12;;;;;;;19.83;12.40;;;;;;;18.68;63.97;100142.69;4931875;28;96782;-86
2021/07/24 04:13:37;;;;;;;16.50;13.75;;;;;;;18.76;63.81;100147.47;4931628;28;98626;-86
2021/07/24 04:16:03;;;;;;;19.17;12.52;;;;;;;18.93;63.36;100144.47;4914700;28;101761;-88
2021/07/24 04:18:31;;;;;;;15.68;12.40;;;;;;;19.08;62.76;100134.56;4914155;28;96700;-86
2021/07/24 04:20:58;;;;;;;16.25;11.48;;;;;;;19.07;63.04;100135.50;4915231;28;97272;-86
2021/07/24 04:23:25;;;;;;;22.05;12.73;;;;;;;18.98;63.32;100136.19;4914536;28;101333;-85
2021/07/24 04:25:51;;;;;;;16.88;12.13;;;;;;;19.08;63.07;100139.88;4917190;28;101097;-86
2021/07/24 04:28:16;;;;;;;20.38;12.32;;;;;;;19.13;62.72;100135.06;4917877;28;96785;-86
2021/07/24 04:30:42;;;;;;;15.27;11.57;;;;;;;19.31;62.37;100129.34;4918591;28;96754;-86
2021/07/24 04:33:07;;;;;;;17.83;11.25;;;;;;;19.32;62.55;100123.09;4933994;28;98528;-86
2021/07/24 04:35:32;;;;;;;16.38;12.48;;;;;;;19.42;62.25;100119.63;4934480;28;100166;-86
2021/07/24 04:37:58;;;;;;;14.93;11.45;;;;;;;19.47;62.07;100119.28;4918181;28;96688;-86
2021/07/24 04:40:23;;;;;;;17.80;10.80;;;;;;;19.63;61.71;100122.53;4917492;28;96665;-86
2021/07/24 04:42:49;;;;;;;15.63;12.20;;;;;;;19.65;61.69;100123.28;4917286;28;101345;-86
2021/07/24 04:45:15;;;;;;;19.20;11.68;;;;;;;19.83;61.52;100112.19;4933691;28;101620;-86
2021/07/24 04:47:41;;;;;;;17.60;11.82;;;;;;;20.05;60.39;100124.75;4918014;28;96646;-86
2021/07/24 04:50:07;;;;;;;18.13;11.75;;;;;;;20.21;60.33;100122.56;4933833;28;96827;-87
2021/07/24 04:52:33;;;;;;;16.15;12.02;;;;;;;20.20;60.04;100115.56;4901783;28;100995;-86
2021/07/24 04:55:00;;;;;;;16.88;12.32;;;;;;;20.28;59.91;100112.31;4901617;28;101277;-86
2021/07/24 04:57:28;;;;;;;16.00;11.50;;;;;;;20.45;59.61;100121.63;4933884;28;96728;-86
2021/07/24 04:59:54;;;;;;;16.55;12.32;;;;;;;20.63;59.27;100125.56;4918295;28;96819;-86
2021/07/24 05:02:20;;;;;;;22.13;12.63;;;;;;;20.78;58.71;100127.00;4916902;28;100463;-86
2021/07/24 05:04:47;;;;;;;18.85;12.40;;;;;;;20.94;58.34;100115.97;4917317;28;101533;-86
2021/07/24 05:07:14;;;;;;;23.08;14.00;;;;;;;21.04;58.27;100124.06;4916027;28;96792;-86
2021/07/24 05:09:42;;;;;;;16.15;12.70;;;;;;;21.24;57.69;100127.78;4917547;28;96932;-86
2021/07/24 05:12:08;;;;;;;16.58;12.63;;;;;;;21.40;57.16;100124.72;4900689;28;101603;-87
2021/07/24 05:14:34;;;;;;;19.65;12.30;;;;;;;21.52;57.13;100125.53;4917142;28;101358;-86
2021/07/24 05:17:04;;;;;;;18.83;12.82;;;;;;;21.69;56.99;100117.81;4917611;28;96675;-86
2021/07/24 05:19:30;;;;;;;18.27;12.60;;;;;;;21.85;56.89;100119.22;4917023;28;97198;-86
2021/07/24 05:21:55;;;;;;;17.70;13.00;;;;;;;21.83;56.61;100124.69;4917143;28;101167;-86
2021/07/24 05:24:21;;;;;;;15.32;12.20;;;;;;;22.09;56.07;100126.97;4916830;28;101656;-86
2021/07/24 05:26:46;;;;;;;18.27;13.20;;;;;;;22.22;55.92;100127.63;4917317;28;96588;-86
2021/07/24 05:29:12;;;;;;;20.73;13.27;;;;;;;22.48;55.33;100121.88;4949003;28;96905;-86
2021/07/24 05:31:38;;;;;;;17.73;12.43;;;;;;;22.66;54.62;100124.75;4916518;28;101318;-85
2021/07/24 05:34:04;;;;;;;15.63;11.02;;;;;;;22.80;54.34;100125.22;4917116;28;101345;-86
2021/07/24 05:36:30;;;;;;;16.63;10.60;;;;;;;23.26;53.58;100123.00;4915694;28;96650;-86
2021/07/24 05:38:55;;;;;;;14.80;11.10;;;;;;;23.22;53.13;100117.06;4917151;28;96857;-86
2021/07/24 05:41:21;;;;;;;16.20;11.07;;;;;;;23.63;52.21;100114.28;4932235;28;97524;-86
2021/07/24 05:43:46;;;;;;;15.65;11.50;;;;;;;23.93;51.23;100119.50;4932778;28;101477;-85
2021/07/24 05:46:12;;;;;;;16.80;11.63;;;;;;;24.37;50.30;100122.50;4916360;28;96599;-86
2021/07/24 05:48:37;;;;;;;18.02;11.93;;;;;;;24.92;49.77;100118.25;4917199;28;96962;-86
2021/07/24 05:51:07;;;;;;;12.05;10.07;;;;;;;25.56;48.29;100119.13;4916628;28;100742;-86
2021/07/24 05:53:33;;;;;;;17.63;11.02;;;;;;;26.62;46.62;100118.09;4916109;28;100689;-85
2021/07/24 05:56:02;;;;;;;15.65;10.35;;;;;;;27.22;44.96;100125.22;4932668;28;96586;-85
2021/07/24 05:58:28;;;;;;;13.30;10.43;;;;;;;28.12;43.19;100119.91;4931754;28;96785;-86
2021/07/24 06:00:54;;;;;;;16.20;10.45;;;;;;;28.56;41.96;100115.97;4916680;28;101629;-85
2021/07/24 06:03:19;;;;;;;12.75;9.98;;;;;;;29.12;41.31;100116.78;4915798;28;100754;-86
2021/07/24 06:05:45;;;;;;;13.43;9.40;;;;;;;30.08;38.97;100117.25;4916701;28;97071;-85
2021/07/24 06:08:10;;;;;;;17.00;10.45;;;;;;;28.06;42.90;100107.13;4916492;28;96878;-85
2021/07/24 06:10:36;;;;;;;14.43;9.40;;;;;;;27.04;44.68;100127.19;4916418;28;101675;-85
2021/07/24 06:13:02;;;;;;;15.73;9.68;;;;;;;27.39;44.26;100118.03;4932881;28;98480;-85
2021/07/24 06:15:30;;;;;;;14.30;10.05;;;;;;;26.90;45.35;100123.25;4932087;28;96601;-85
2021/07/24 06:17:55;;;;;;;15.20;10.15;;;;;;;27.59;44.28;100121.25;4933077;28;96795;-85
2021/07/24 06:20:21;;;;;;;14.27;9.43;;;;;;;29.59;40.77;100117.66;4899300;28;101025;-85
2021/07/24 06:22:46;;;;;;;16.17;10.70;;;;;;;29.19;40.73;100116.91;4932024;28;101514;-85
2021/07/24 06:25:13;;;;;;;15.25;10.38;;;;;;;29.19;40.86;100111.50;4932347;28;96616;-85
2021/07/24 06:27:40;;;;;;;13.77;9.88;;;;;;;29.66;39.73;100105.13;4916630;28;96817;-86
2021/07/24 06:30:06;;;;;;;18.80;9.77;;;;;;;31.12;37.49;100108.13;4916067;28;101369;-85
2021/07/24 06:32:32;;;;;;;12.15;9.70;;;;;;;32.31;36.19;100109.47;4931512;28;101445;-86
2021/07/24 06:34:57;;;;;;;13.75;9.18;;;;;;;32.25;35.84;100117.38;4932417;28;96503;-86
2021/07/24 06:37:22;;;;;;;14.18;9.13;;;;;;;33.74;33.49;100113.19;4932313;28;96532;-86
2021/07/24 06:39:48;;;;;;;13.95;9.35;;;;;;;34.72;31.57;100120.66;4916000;28;101486;-86
2021/07/24 06:42:14;;;;;;;10.13;9.00;;;;;;;35.22;30.66;100112.69;4931152;28;101671;-87
2021/07/24 06:44:39;;;;;;;17.33;9.07;;;;;;;34.99;31.39;100118.66;4915390;28;96719;-88
2021/07/24 06:47:05;;;;;;;14.13;8.23;;;;;;;35.24;30.36;100113.31;4931718;28;97227;-86
2021/07/24 06:49:30;;;;;;;11.77;7.93;;;;;;;36.14;29.66;100103.03;4931576;28;98460;-86
2021/07/24 06:51:56;;;;;;;9.70;7.93;;;;;;;36.38;29.69;100108.66;4915915;28;100099;-86
2021/07/24 06:54:21;;;;;;;9.02;7.82;;;;;;;36.81;28.89;100099.59;4915840;28;96629;-87
2021/07/24 06:56:47;;;;;;;9.98;7.72;;;;;;;37.04;28.32;100101.63;4932244;28;96913;-87
2021/07/24 06:59:13;;;;;;;10.82;7.18;;;;;;;37.36;28.74;100099.47;4916152;28;100283;-87
2021/07/24 07:01:38;;;;;;;9.02;8.15;;;;;;;37.49;27.61;100096.56;4915647;28;101392;-87
2021/07/24 07:04:06;;;;;;;11.02;7.07;;;;;;;37.41;27.97;100096.88;4915961;28;96585;-87
2021/07/24 07:06:33;;;;;;;11.02;7.30;;;;;;;37.48;27.97;100099.53;4931932;28;97021;-86
2021/07/24 07:08:58;;;;;;;9.48;6.60;;;;;;;37.86;27.43;100099.13;4915558;28;100082;-87
2021/07/24 07:11:25;;;;;;;10.38;7.32;;;;;;;38.09;26.96;100098.34;4932534;28;97913;-87
2021/07/24 07:13:51;;;;;;;8.13;7.22;;;;;;;37.96;26.84;100104.03;4899898;28;97160;-87
2021/07/24 07:16:16;;;;;;;10.25;7.35;;;;;;;38.30;26.53;100101.53;4915584;28;97883;-88
2021/07/24 07:18:42;;;;;;;9.90;6.90;;;;;;;38.91;25.87;100098.22;4915657;28;102067;-87
2021/07/24 07:21:08;;;;;;;10.15;7.50;;;;;;;38.68;26.17;100099.09;4931755;28;102250;-86
2021/07/24 07:23:34;;;;;;;8.82;7.22;;;;;;;38.48;26.35;100093.19;4931151;28;97075;-87
2021/07/24 07:26:01;;;;;;;8.63;7.43;;;;;;;38.88;26.08;100097.88;4916102;28;96994;-86
2021/07/24 07:28:26;;;;;;;9.20;7.22;;;;;;;39.30;25.36;100098.47;4915116;28;101232;-86
2021/07/24 07:30:52;;;;;;;8.35;7.50;;;;;;;39.55;24.91;100098.06;4915247;28;101409;-87
2021/07/24 07:33:18;;;;;;;7.22;6.63;;;;;;;39.91;24.79;100097.84;4914927;28;97237;-88
2021/07/24 07:35:43;;;;;;;7.10;6.35;;;;;;;39.57;25.36;100098.66;4915341;28;97517;-86
2021/07/24 07:38:09;;;;;;;7.60;6.45;;;;;;;39.54;25.63;100101.91;4930811;28;101129;-86
2021/07/24 07:40:39;;;;;;;13.38;7.65;;;;;;;38.93;25.84;100101.56;4931000;28;98030;-86
2021/07/24 07:43:06;;;;;;;7.35;6.65;;;;;;;39.55;25.28;100098.06;4914900;28;96939;-86
2021/07/24 07:45:32;;;;;;;7.18;6.53;;;;;;;39.75;24.79;100097.59;4914672;28;96884;-86
2021/07/24 07:47:58;;;;;;;8.50;7.35;;;;;;;39.89;25.06;100097.28;4914629;28;101409;-85
2021/07/24 07:50:23;;;;;;;8.65;6.88;;;;;;;40.13;24.12;100095.16;4914566;28;100987;-85
2021/07/24 07:52:49;;;;;;;9.77;6.65;;;;;;;41.22;22.76;100083.34;4915072;28;97624;-85
2021/07/24 07:55:15;;;;;;;8.02;6.18;;;;;;;40.69;23.30;100085.78;4931012;28;96865;-85
2021/07/24 07:57:41;;;;;;;8.23;7.38;;;;;;;40.29;23.63;100091.53;4930069;28;101829;-86
2021/07/24 08:00:08;;;;;;;7.50;6.65;;;;;;;40.16;23.82;100097.41;4932147;28;101224;-86
2021/07/24 08:02:37;;;;;;;11.20;6.57;;;;;;;40.11;24.54;100089.06;4947010;28;96652;-85
2021/07/24 08:05:04;;;;;;;7.38;6.65;;;;;;;39.93;25.03;100096.50;4918256;28;96982;-86
2021/07/24 08:07:29;;;;;;;7.57;6.65;;;;;;;40.09;23.33;100091.22;4933753;28;101636;-86
2021/07/24 08:09:56;;;;;;;9.75;6.22;;;;;;;40.57;23.17;100074.06;4934202;28;101606;-86
2021/07/24 08:12:24;;;;;;;8.80;6.20;;;;;;;40.13;23.73;100070.41;4933853;28;96737;-86
2021/07/24 08:14:50;;;;;;;6.70;6.10;;;;;;;40.31;23.99;100080.31;4934461;28;96835;-86
2021/07/24 08:17:16;;;;;;;7.72;6.80;;;;;;;40.40;23.11;100070.53;4913739;28;101791;-86
2021/07/24 08:19:42;;;;;;;10.95;6.18;;;;;;;40.29;23.78;100069.56;4921948;28;102684;-86
2021/07/24 08:22:07;;;;;;;9.32;7.07;;;;;;;40.04;23.19;100064.53;4912893;28;96663;-86
2021/07/24 08:24:33;;;;;;;9.05;6.70;;;;;;;40.89;22.58;100057.66;4932795;28;97151;-86
2021/07/24 08:26:58;;;;;;;10.57;5.93;;;;;;;41.02;22.94;100063.84;4916491;28;101587;-86
2021/07/24 08:29:24;;;;;;;9.35;6.47;;;;;;;40.99;22.15;100051.47;4932483;28;100134;-86
2021/07/24 08:31:49;;;;;;;7.90;5.72;;;;;;;40.76;22.86;100057.25;4914076;28;96726;-86
2021/07/24 08:34:15;;;;;;;6.25;5.65;;;;;;;40.95;22.73;100058.56;4926717;28;97600;-86
2021/07/24 08:36:41;;;;;;;8.40;6.43;;;;;;;40.89;22.33;100054.09;4916887;28;98570;-85
2021/07/24 08:39:06;;;;;;;10.10;5.95;;;;;;;41.09;22.01;100045.25;4933493;28;101710;-85
2021/07/24 08:41:32;;;;;;;6.95;5.82;;;;;;;41.30;21.51;100047.09;4932228;28;97198;-86
2021/07/24 08:43:58;;;;;;;9.88;5.38;;;;;;;41.18;21.68;100039.00;4913774;28;96944;-86
2021/07/24 08:46:23;;;;;;;5.68;5.18;;;;;;;41.52;21.57;100041.53;4929430;28;101392;-86
2021/07/24 08:48:49;;;;;;;4.90;4.40;;;;;;;41.67;21.22;100038.06;4932796;28;101763;-86
2021/07/24 08:51:19;;;;;;;8.55;5.35;;;;;;;41.99;21.21;100045.47;4932905;28;96843;-86
2021/07/24 08:53:44;;;;;;;6.80;5.20;;;;;;;41.79;21.32;100035.09;4932749;28;96852;-85
2021/07/24 08:56:23;;;;;;;9.30;6.03;;;;;;;41.97;21.41;100031.94;4916923;28;98472;-85
2021/07/24 08:58:51;;;;;;;6.50;5.43;;;;;;;42.51;20.56;100028.91;4918377;28;98541;-85
2021/07/24 09:01:19;;;;;;;11.50;5.93;;;;;;;41.96;20.41;100013.75;4932801;28;97860;-85
2021/07/24 09:03:45;;;;;;;11.70;6.05;;;;;;;41.87;20.74;100023.59;4933946;28;96793;-85
2021/07/24 09:06:15;;;;;;;7.45;5.50;;;;;;;40.99;21.29;100018.44;4932564;28;101602;-85
2021/07/24 09:08:41;;;;;;;6.72;5.50;;;;;;;41.34;20.86;100017.13;4912950;28;101539;-86
2021/07/24 09:11:07;;;;;;;7.32;5.38;;;;;;;40.73;20.94;100004.44;4911801;28;97396;-86
2021/07/24 09:13:33;;;;;;;6.88;5.43;;;;;;;40.83;21.00;100008.38;4922814;28;97394;-86
2021/07/24 09:15:58;;;;;;;6.95;5.32;;;;;;;40.64;21.46;100005.13;4932239;28;101507;-87
2021/07/24 09:18:25;;;;;;;9.45;5.68;;;;;;;40.09;20.58;100008.78;4930730;28;98109;-87
2021/07/24 09:20:50;;;;;;;6.18;5.65;;;;;;;39.63;21.03;100008.13;4932670;28;96660;-86
2021/07/24 09:23:27;;;;;;;7.57;5.88;;;;;;;38.75;21.95;100007.63;4932382;28;97338;-86
2021/07/24 09:25:53;;;;;;;7.57;5.63;;;;;;;38.23;22.61;100003.84;4916628;28;101401;-85
2021/07/24 09:28:18;;;;;;;6.70;5.82;;;;;;;37.90;23.20;100003.63;4916414;28;101953;-86
2021/07/24 09:30:44;;;;;;;9.13;6.03;;;;;;;37.41;23.63;100005.72;4932412;28;96645;-86
2021/07/24 09:33:11;;;;;;;7.60;5.72;;;;;;;37.06;24.63;99999.13;4932816;28;96607;-86
2021/07/24 09:35:41;;;;;;;9.85;6.55;;;;;;;37.37;23.59;99997.97;4915787;28;101420;-86
2021/07/24 09:38:31;;;;;;;7.30;6.30;;;;;;;37.29;23.16;99997.50;4934081;28;98368;-86
2021/07/24 09:40:58;;;;;;;6.60;6.00;;;;;;;36.37;24.28;99992.25;4917027;28;97022;-86
2021/07/24 09:43:40;;;;;;;8.32;5.72;;;;;;;36.07;24.85;99998.44;4916420;28;96922;-86
2021/07/24 09:46:22;;;;;;;6.45;5.85;;;;;;;35.75;25.03;99998.56;4932807;28;101618;-86
2021/07/24 09:48:48;;;;;;;7.82;6.68;;;;;;;36.00;24.63;100001.22;4900151;28;101699;-86
2021/07/24 09:51:15;;;;;;;8.30;6.18;;;;;;;35.68;25.04;100010.59;4932855;28;96694;-86
2021/07/24 09:53:45;;;;;;;6.72;6.00;;;;;;;35.20;25.34;99997.53;4932733;28;97301;-87
2021/07/24 09:56:14;;;;;;;9.50;6.30;;;;;;;34.71;26.00;100010.81;4900527;28;101628;-86
2021/07/24 09:58:41;;;;;;;6.73;5.57;;;;;;;34.88;26.56;100005.69;4900061;28;101502;-86
2021/07/24 10:01:08;;;;;;;10.25;6.40;;;;;;;35.01;27.75;100005.59;4932508;28;96690;-86
2021/07/24 10:03:38;;;;;;;7.93;6.10;;;;;;;34.95;26.87;99995.56;4931904;28;97234;-86
2021/07/24 10:06:22;;;;;;;7.75;5.68;;;;;;;34.56;27.48;100000.19;4900650;28;100056;-86
2021/07/24 10:08:49;;;;;;;7.97;5.97;;;;;;;34.46;27.23;99999.78;4899525;28;101347;-86
2021/07/24 10:11:15;;;;;;;6.15;5.53;;;;;;;34.14;26.31;99994.22;4900254;28;96689;-87
2021/07/24 10:13:42;;;;;;;8.85;5.95;;;;;;;33.58;27.14;100005.63;4931803;28;96833;-86
2021/07/24 10:16:08;;;;;;;7.20;6.50;;;;;;;33.20;27.65;100010.81;4932353;28;101261;-86
2021/07/24 10:18:34;;;;;;;7.18;5.82;;;;;;;32.90;27.96;100011.97;4932108;28;100201;-86
2021/07/24 10:21:00;;;;;;;8.35;6.10;;;;;;;32.85;28.01;100009.03;4916037;28;96693;-86
2021/07/24 10:23:26;;;;;;;7.85;6.35;;;;;;;32.84;27.82;99992.91;4915834;28;96888;-86
2021/07/24 10:26:13;;;;;;;9.23;6.25;;;;;;;32.84;28.38;100009.22;4931296;28;101629;-86
2021/07/24 10:28:53;;;;;;;6.40;5.80;;;;;;;32.83;28.26;100002.94;4931520;28;101860;-86
2021/07/24 10:31:37;;;;;;;;;;;;;;;32.26;28.57;100006.91;4933521;28;97456;-87
2021/07/24 10:34:06;;;;;;;9.52;6.30;;;;;;;32.60;28.70;100002.47;4932327;28;96918;-87
2021/07/24 10:36:38;;;;;;;6.72;6.03;;;;;;;32.26;28.23;100009.63;4899419;28;101662;-88
2021/07/24 10:39:07;;;;;;;7.03;6.30;;;;;;;31.79;29.12;100003.88;4932166;28;101122;-86
2021/07/24 10:41:33;;;;;;;6.65;5.95;;;;;;;31.40;29.62;100001.69;4931110;28;97050;-87
2021/07/24 10:43:59;;;;;;;9.35;6.50;;;;;;;31.32;29.75;100002.59;4934088;28;96566;-87
2021/07/24 10:46:45;;;;;;;8.93;6.43;;;;;;;31.28;28.88;99995.06;4916132;28;101539;-87
2021/07/24 10:49:33;;;;;;;8.88;5.97;;;;;;;31.31;29.35;100003.66;4915785;28;101334;-87
2021/07/24 10:52:03;;;;;;;12.02;6.47;;;;;;;31.24;29.85;99994.63;4915586;28;98192;-87
2021/07/24 10:54:29;;;;;;;7.95;6.55;;;;;;;31.25;29.44;99998.19;4915855;28;97753;-87
2021/07/24 10:56:55;;;;;;;7.10;6.28;;;;;;;31.11;30.21;99994.50;4931719;28;98087;-87
2021/07/24 10:59:29;;;;;;;8.98;6.78;;;;;;;31.16;30.50;99986.63;4931920;28;101157;-87
2021/07/24 11:01:58;;;;;;;7.13;6.43;;;;;;;31.23;31.00;99987.53;4931541;28;96698;-87
2021/07/24 11:04:36;;;;;;;7.30;6.35;;;;;;;31.09;29.39;99983.84;4931553;28;96579;-87
2021/07/24 11:07:14;;;;;;;7.43;6.70;;;;;;;30.79;29.74;99976.88;4915666;28;100917;-86
2021/07/24 11:09:41;;;;;;;8.55;6.47;;;;;;;30.86;31.36;99980.47;4931770;28;98538;-86
2021/07/24 11:12:13;;;;;;;7.43;6.45;;;;;;;30.86;30.37;99975.91;4933875;28;97649;-86
2021/07/24 11:14:42;;;;;;;8.20;6.68;;;;;;;30.83;29.72;99973.56;4901828;28;96791;-85
2021/07/24 11:17:08;;;;;;;7.88;6.57;;;;;;;30.67;29.45;99976.50;4939173;28;101359;-87